Mooreland, Oklahoma
Current Conditions -  °F | °C
As of 1:55 AM on Saturday 27 Dec 2014 (Local Time) from KWWR Reporting Station
Overcast Overcast  
Wind Chill: 21°   Ceiling: 10000
Heat Index: 30°   Visibility: 10mi
Dew Point: 23°   Wind: 10mph
Humidity: 75%   Direction: 350°N
Pressure: 30.2"   Gusts: 16mph
Location:  36.44°N, 99.2°W
Report Text: KWWR 270755Z AUTO 35009G14KT 10SM OVC100 M01/M05 A3020 RMK AO2
Loading
Personal Weather Stations






























Interactive Weather Map New forecast layout! Learn more

10-Day Weather Forecast

Advertisements
Track Severe Weather on mobile